This is the latest recevied weather packets stored in our database for station/object WX5RP. If no packets are shown the sender has not sent any weather packets the latest 10 day(s).
| Time | Temp. | Humidity | Pressure | Rain* | Wind** | Luminosity | Snow |
|---|---|---|---|---|---|---|---|
| 1788054615 | 18.89° C | 33% | 1017.5 hPa | 0 mm | - | 38 W/m² | - |
| 1788054016 | 19.44° C | 31% | 1016.6 hPa | 0 mm | - | 51 W/m² | - |
| 1788053415 | 20.56° C | 27% | 1016.9 hPa | 0 mm | - | 44 W/m² | - |
| 1788052817 | 21.11° C | 20% | 1016.7 hPa | 0 mm | - | 61 W/m² | - |
| 1788052215 | 21.11° C | 19% | 1016.7 hPa | 0 mm | - | 105 W/m² | - |
| 1788051615 | 21.67° C | 17% | 1017 hPa | 0 mm | - | 148 W/m² | - |
| 1788051015 | 21.67° C | 19% | 1016.6 hPa | 0 mm | - | 291 W/m² | - |
| 1788050415 | 21.67° C | 18% | 1016.3 hPa | 0 mm | - | 254 W/m² | - |
| 1788049816 | 22.22° C | 20% | 1016.6 hPa | 0 mm | - | 338 W/m² | - |
| 1788049215 | 22.22° C | 17% | 1016.4 hPa | 0 mm | - | 398 W/m² | - |
| 1788048615 | 22.22° C | 19% | 1016.8 hPa | 0 mm | - | 431 W/m² | - |
| 1788048017 | 22.78° C | 18% | 1016.8 hPa | 0 mm | - | 462 W/m² | - |
| 1788047417 | 22.78° C | 19% | 1017 hPa | 0 mm | - | 493 W/m² | - |
| 1788046817 | 22.78° C | 17% | 1016.8 hPa | 0 mm | - | 527 W/m² | - |
| 1788046217 | 22.78° C | 16% | 1016.8 hPa | 0 mm | - | 553 W/m² | - |
| 1788045617 | 23.33° C | 14% | 1016.8 hPa | 0 mm | - | 586 W/m² | - |
| 1788045017 | 23.33° C | 16% | 1016.9 hPa | 0 mm | - | 616 W/m² | - |
| 1788044416 | 23.33° C | 17% | 1016.9 hPa | 0 mm | - | 640 W/m² | - |
| 1788043817 | 23.33° C | 17% | 1017.2 hPa | 0 mm | - | 665 W/m² | - |
| 1788043219 | 23.33° C | 19% | 1017 hPa | 0 mm | - | 695 W/m² | - |
| 1788042617 | 23.33° C | 21% | 1017 hPa | 0 mm | - | 720 W/m² | - |
| 1788042017 | 23.33° C | 18% | 1017.2 hPa | 0 mm | - | 750 W/m² | - |
| 1788041417 | 22.78° C | 21% | 1017 hPa | 0 mm | - | 791 W/m² | - |
| 1788040817 | 22.78° C | 23% | 1017.1 hPa | 0 mm | - | 517 W/m² | - |
| 1788040217 | 22.78° C | 22% | 1017.6 hPa | 0 mm | - | 173 W/m² | - |
* Rain latest hour (hover to see other rain measurements)
** Current wind speed in m/s (hover to see current wind gust speed)